sensor_id;sensor_type;location;lat;lon;timestamp;pressure;altitude;pressure_sealevel;temperature;humidity
54042;BME280;41156;51.508;5.406;2023-03-04T00:01:12;102533.69;;;4.79;94.64
54042;BME280;41156;51.508;5.406;2023-03-04T00:04:12;102534.66;;;4.78;94.36
54042;BME280;41156;51.508;5.406;2023-03-04T00:07:12;102527.50;;;4.78;95.00
54042;BME280;41156;51.508;5.406;2023-03-04T00:10:16;102536.50;;;4.77;95.44
54042;BME280;41156;51.508;5.406;2023-03-04T00:13:16;102529.47;;;4.76;94.82
54042;BME280;41156;51.508;5.406;2023-03-04T00:16:17;102529.47;;;4.76;95.26
54042;BME280;41156;51.508;5.406;2023-03-04T00:19:17;102538.59;;;4.74;95.17
54042;BME280;41156;51.508;5.406;2023-03-04T00:22:18;102529.72;;;4.73;95.06
54042;BME280;41156;51.508;5.406;2023-03-04T00:25:18;102525.34;;;4.72;95.16
54042;BME280;41156;51.508;5.406;2023-03-04T00:28:18;102519.97;;;4.72;95.11
54042;BME280;41156;51.508;5.406;2023-03-04T00:31:19;102517.31;;;4.72;95.50
54042;BME280;41156;51.508;5.406;2023-03-04T00:34:19;102520.97;;;4.71;95.96
54042;BME280;41156;51.508;5.406;2023-03-04T00:37:20;102522.66;;;4.72;95.88
54042;BME280;41156;51.508;5.406;2023-03-04T00:40:20;102518.16;;;4.73;95.95
54042;BME280;41156;51.508;5.406;2023-03-04T00:43:20;102518.16;;;4.73;96.19
54042;BME280;41156;51.508;5.406;2023-03-04T00:46:21;102519.00;;;4.73;95.92
54042;BME280;41156;51.508;5.406;2023-03-04T00:49:21;102518.00;;;4.74;96.23
54042;BME280;41156;51.508;5.406;2023-03-04T00:52:21;102516.19;;;4.75;95.83
54042;BME280;41156;51.508;5.406;2023-03-04T00:55:22;102518.75;;;4.76;96.25
54042;BME280;41156;51.508;5.406;2023-03-04T00:58:22;102518.75;;;4.76;95.93
54042;BME280;41156;51.508;5.406;2023-03-04T01:01:22;102510.53;;;4.78;96.30
54042;BME280;41156;51.508;5.406;2023-03-04T01:04:23;102518.59;;;4.78;96.41
54042;BME280;41156;51.508;5.406;2023-03-04T01:07:23;102524.81;;;4.78;96.46
54042;BME280;41156;51.508;5.406;2023-03-04T01:10:23;102522.97;;;4.79;96.98
54042;BME280;41156;51.508;5.406;2023-03-04T01:13:24;102523.09;;;4.77;97.03
54042;BME280;41156;51.508;5.406;2023-03-04T01:16:24;102523.94;;;4.78;97.03
54042;BME280;41156;51.508;5.406;2023-03-04T01:19:24;102534.81;;;4.76;96.77
54042;BME280;41156;51.508;5.406;2023-03-04T01:22:24;102524.09;;;4.76;97.13
54042;BME280;41156;51.508;5.406;2023-03-04T01:25:25;102526.78;;;4.76;97.06
54042;BME280;41156;51.508;5.406;2023-03-04T01:28:25;102521.44;;;4.76;96.83
54042;BME280;41156;51.508;5.406;2023-03-04T01:31:26;102517.88;;;4.76;96.92
54042;BME280;41156;51.508;5.406;2023-03-04T01:34:26;102522.25;;;4.77;96.72
54042;BME280;41156;51.508;5.406;2023-03-04T01:37:26;102515.06;;;4.77;96.65
54042;BME280;41156;51.508;5.406;2023-03-04T01:40:26;102508.88;;;4.77;96.55
54042;BME280;41156;51.508;5.406;2023-03-04T01:43:28;102514.09;;;4.78;96.64
54042;BME280;41156;51.508;5.406;2023-03-04T01:46:30;102507.88;;;4.78;96.38
54042;BME280;41156;51.508;5.406;2023-03-04T01:49:30;102505.19;;;4.78;96.83
54042;BME280;41156;51.508;5.406;2023-03-04T01:52:32;102504.34;;;4.77;97.38
54042;BME280;41156;51.508;5.406;2023-03-04T01:55:32;102494.47;;;4.78;96.81
54042;BME280;41156;51.508;5.406;2023-03-04T01:58:33;102490.97;;;4.77;96.71
54042;BME280;41156;51.508;5.406;2023-03-04T02:01:34;102491.81;;;4.78;97.19
54042;BME280;41156;51.508;5.406;2023-03-04T02:04:34;102489.13;;;4.78;97.37
54042;BME280;41156;51.508;5.406;2023-03-04T02:07:35;102482.09;;;4.77;96.90
54042;BME280;41156;51.508;5.406;2023-03-04T02:10:36;102477.72;;;4.76;97.07
54042;BME280;41156;51.508;5.406;2023-03-04T02:13:37;102475.91;;;4.76;97.32
54042;BME280;41156;51.508;5.406;2023-03-04T02:16:37;102469.66;;;4.76;98.01
54042;BME280;41156;51.508;5.406;2023-03-04T02:22:45;102471.66;;;4.74;98.23
54042;BME280;41156;51.508;5.406;2023-03-04T02:29:15;102470.94;;;4.72;97.94
54042;BME280;41156;51.508;5.406;2023-03-04T02:32:16;102473.63;;;4.72;97.46
54042;BME280;41156;51.508;5.406;2023-03-04T02:35:17;102471.78;;;4.72;97.70
54042;BME280;41156;51.508;5.406;2023-03-04T02:38:18;102463.75;;;4.72;98.20
54042;BME280;41156;51.508;5.406;2023-03-04T02:41:22;102467.41;;;4.71;97.99
54042;BME280;41156;51.508;5.406;2023-03-04T02:47:23;102450.63;;;4.69;97.74
54042;BME280;41156;51.508;5.406;2023-03-04T02:50:24;102457.69;;;4.70;97.87
54042;BME280;41156;51.508;5.406;2023-03-04T02:53:25;102457.69;;;4.70;98.18
54042;BME280;41156;51.508;5.406;2023-03-04T02:56:25;102452.34;;;4.70;98.00
54042;BME280;41156;51.508;5.406;2023-03-04T02:59:26;102450.63;;;4.69;98.19
54042;BME280;41156;51.508;5.406;2023-03-04T03:02:26;102447.94;;;4.69;98.71
54042;BME280;41156;51.508;5.406;2023-03-04T03:05:28;102448.94;;;4.68;99.01
54042;BME280;41156;51.508;5.406;2023-03-04T03:08:29;102441.75;;;4.69;98.67
54042;BME280;41156;51.508;5.406;2023-03-04T03:11:30;102447.94;;;4.69;98.46
54042;BME280;41156;51.508;5.406;2023-03-04T03:14:30;102439.22;;;4.67;98.78
54042;BME280;41156;51.508;5.406;2023-03-04T03:17:30;102446.28;;;4.68;99.08
54042;BME280;41156;51.508;5.406;2023-03-04T03:20:31;102442.72;;;4.68;99.09
54042;BME280;41156;51.508;5.406;2023-03-04T03:23:31;102440.03;;;4.68;99.70
54042;BME280;41156;51.508;5.406;2023-03-04T03:26:31;102442.84;;;4.66;99.44
54042;BME280;41156;51.508;5.406;2023-03-04T03:29:32;102438.50;;;4.65;99.79
54042;BME280;41156;51.508;5.406;2023-03-04T03:32:32;102436.66;;;4.66;99.07
54042;BME280;41156;51.508;5.406;2023-03-04T03:35:33;102430.47;;;4.65;100.00
54042;BME280;41156;51.508;5.406;2023-03-04T03:38:33;102431.31;;;4.66;99.59
54042;BME280;41156;51.508;5.406;2023-03-04T03:41:33;102432.44;;;4.63;100.00
54042;BME280;41156;51.508;5.406;2023-03-04T03:44:34;102431.31;;;4.66;99.65
54042;BME280;41156;51.508;5.406;2023-03-04T03:47:34;102428.78;;;4.64;99.61
54042;BME280;41156;51.508;5.406;2023-03-04T03:50:34;102424.25;;;4.64;99.58
54042;BME280;41156;51.508;5.406;2023-03-04T03:53:34;102427.94;;;4.63;100.00
54042;BME280;41156;51.508;5.406;2023-03-04T03:56:35;102430.59;;;4.63;100.00
54042;BME280;41156;51.508;5.406;2023-03-04T03:59:35;102429.03;;;4.61;100.00
54042;BME280;41156;51.508;5.406;2023-03-04T04:02:35;102430.75;;;4.62;100.00
54042;BME280;41156;51.508;5.406;2023-03-04T04:05:35;102434.41;;;4.61;100.00
54042;BME280;41156;51.508;5.406;2023-03-04T04:08:36;102434.41;;;4.61;99.76
54042;BME280;41156;51.508;5.406;2023-03-04T04:11:36;102430.19;;;4.58;100.00
54042;BME280;41156;51.508;5.406;2023-03-04T04:14:36;102436.22;;;4.60;100.00
54042;BME280;41156;51.508;5.406;2023-03-04T04:17:37;102433.69;;;4.59;99.30
54042;BME280;41156;51.508;5.406;2023-03-04T04:20:37;102432.72;;;4.60;99.84
54042;BME280;41156;51.508;5.406;2023-03-04T04:23:37;102431.00;;;4.59;99.57
54042;BME280;41156;51.508;5.406;2023-03-04T04:26:38;102432.72;;;4.60;99.40
54042;BME280;41156;51.508;5.406;2023-03-04T04:29:39;102433.69;;;4.59;99.36
54042;BME280;41156;51.508;5.406;2023-03-04T04:32:39;102435.53;;;4.58;99.59
54042;BME280;41156;51.508;5.406;2023-03-04T04:35:39;102428.34;;;4.59;99.27
54042;BME280;41156;51.508;5.406;2023-03-04T04:38:40;102435.41;;;4.60;99.09
54042;BME280;41156;51.508;5.406;2023-03-04T04:41:42;102433.56;;;4.60;99.29
54042;BME280;41156;51.508;5.406;2023-03-04T04:44:42;102433.69;;;4.59;99.07
54042;BME280;41156;51.508;5.406;2023-03-04T04:47:42;102438.22;;;4.58;99.63
54042;BME280;41156;51.508;5.406;2023-03-04T04:50:43;102446.25;;;4.58;99.55
54042;BME280;41156;51.508;5.406;2023-03-04T04:53:43;102442.69;;;4.58;98.98
54042;BME280;41156;51.508;5.406;2023-03-04T04:56:43;102444.53;;;4.57;99.50
54042;BME280;41156;51.508;5.406;2023-03-04T04:59:44;102444.53;;;4.57;99.05
54042;BME280;41156;51.508;5.406;2023-03-04T05:02:44;102441.00;;;4.57;99.63
54042;BME280;41156;51.508;5.406;2023-03-04T05:05:45;102440.88;;;4.58;99.01
54042;BME280;41156;51.508;5.406;2023-03-04T05:08:46;102432.97;;;4.57;99.28
54042;BME280;41156;51.508;5.406;2023-03-04T05:11:46;102437.50;;;4.56;99.19
54042;BME280;41156;51.508;5.406;2023-03-04T05:14:46;102442.84;;;4.56;99.43
54042;BME280;41156;51.508;5.406;2023-03-04T05:17:47;102442.69;;;4.58;99.26
54042;BME280;41156;51.508;5.406;2023-03-04T05:20:55;102436.63;;;4.56;99.37
54042;BME280;41156;51.508;5.406;2023-03-04T05:23:56;102437.63;;;4.55;99.10
54042;BME280;41156;51.508;5.406;2023-03-04T05:26:56;102434.97;;;4.55;99.08
54042;BME280;41156;51.508;5.406;2023-03-04T05:29:57;102434.97;;;4.55;99.38
54042;BME280;41156;51.508;5.406;2023-03-04T05:33:00;102440.31;;;4.55;99.11
54042;BME280;41156;51.508;5.406;2023-03-04T05:36:03;102438.59;;;4.54;99.36
54042;BME280;41156;51.508;5.406;2023-03-04T05:39:04;102445.66;;;4.55;98.94
54042;BME280;41156;51.508;5.406;2023-03-04T05:42:04;102441.16;;;4.55;98.86
54042;BME280;41156;51.508;5.406;2023-03-04T05:45:05;102444.78;;;4.54;98.98
54042;BME280;41156;51.508;5.406;2023-03-04T05:48:06;102448.34;;;4.55;98.82
54042;BME280;41156;51.508;5.406;2023-03-04T05:51:07;102444.66;;;4.56;99.20
54042;BME280;41156;51.508;5.406;2023-03-04T05:54:07;102443.00;;;4.55;98.94
54042;BME280;41156;51.508;5.406;2023-03-04T05:57:07;102447.59;;;4.53;99.59
54042;BME280;41156;51.508;5.406;2023-03-04T06:00:08;102452.00;;;4.54;99.20
54042;BME280;41156;51.508;5.406;2023-03-04T06:03:16;102450.16;;;4.54;99.26
54042;BME280;41156;51.508;5.406;2023-03-04T06:06:17;102447.59;;;4.53;99.24
54042;BME280;41156;51.508;5.406;2023-03-04T06:09:18;102452.97;;;4.53;100.00
54042;BME280;41156;51.508;5.406;2023-03-04T06:12:20;102456.50;;;4.53;100.00
54042;BME280;41156;51.508;5.406;2023-03-04T06:15:20;102454.94;;;4.51;99.56
54042;BME280;41156;51.508;5.406;2023-03-04T06:18:21;102451.28;;;4.52;100.00
54042;BME280;41156;51.508;5.406;2023-03-04T06:21:21;102448.63;;;4.52;100.00
54042;BME280;41156;51.508;5.406;2023-03-04T06:24:22;102449.59;;;4.51;100.00
54042;BME280;41156;51.508;5.406;2023-03-04T06:27:22;102456.91;;;4.49;100.00
54042;BME280;41156;51.508;5.406;2023-03-04T06:30:22;102457.75;;;4.49;100.00
54042;BME280;41156;51.508;5.406;2023-03-04T06:33:23;102458.63;;;4.50;100.00
54042;BME280;41156;51.508;5.406;2023-03-04T06:36:23;102463.09;;;4.49;100.00
54042;BME280;41156;51.508;5.406;2023-03-04T06:39:23;102463.09;;;4.49;100.00
54042;BME280;41156;51.508;5.406;2023-03-04T06:42:24;102460.56;;;4.48;100.00
54042;BME280;41156;51.508;5.406;2023-03-04T06:45:24;102466.66;;;4.50;100.00
54042;BME280;41156;51.508;5.406;2023-03-04T06:48:24;102469.44;;;4.48;100.00
54042;BME280;41156;51.508;5.406;2023-03-04T06:51:25;102462.41;;;4.47;100.00
54042;BME280;41156;51.508;5.406;2023-03-04T06:54:25;102474.81;;;4.48;100.00
54042;BME280;41156;51.508;5.406;2023-03-04T06:57:25;102473.81;;;4.49;100.00
54042;BME280;41156;51.508;5.406;2023-03-04T07:00:26;102482.72;;;4.50;100.00
54042;BME280;41156;51.508;5.406;2023-03-04T07:03:26;102480.03;;;4.50;100.00
54042;BME280;41156;51.508;5.406;2023-03-04T07:06:28;102476.34;;;4.51;100.00
54042;BME280;41156;51.508;5.406;2023-03-04T07:09:28;102481.72;;;4.51;100.00
54042;BME280;41156;51.508;5.406;2023-03-04T07:12:28;102481.56;;;4.52;100.00
54042;BME280;41156;51.508;5.406;2023-03-04T07:15:29;102477.78;;;4.55;100.00
54042;BME280;41156;51.508;5.406;2023-03-04T07:18:30;102484.81;;;4.56;100.00
54042;BME280;41156;51.508;5.406;2023-03-04T07:21:30;102488.38;;;4.56;100.00
54042;BME280;41156;51.508;5.406;2023-03-04T07:24:30;102492.59;;;4.59;100.00
54042;BME280;41156;51.508;5.406;2023-03-04T07:27:31;102491.50;;;4.61;100.00
54042;BME280;41156;51.508;5.406;2023-03-04T07:30:31;102498.38;;;4.64;100.00
54042;BME280;41156;51.508;5.406;2023-03-04T07:33:31;102491.78;;;4.68;100.00
54042;BME280;41156;51.508;5.406;2023-03-04T07:36:34;102503.06;;;4.72;100.00
54042;BME280;41156;51.508;5.406;2023-03-04T07:39:34;102505.50;;;4.75;100.00
54042;BME280;41156;51.508;5.406;2023-03-04T07:42:35;102503.50;;;4.77;100.00
54042;BME280;41156;51.508;5.406;2023-03-04T07:45:36;102506.06;;;4.78;100.00
54042;BME280;41156;51.508;5.406;2023-03-04T07:48:36;102507.75;;;4.79;100.00
54042;BME280;41156;51.508;5.406;2023-03-04T07:51:37;102507.59;;;4.81;100.00
54042;BME280;41156;51.508;5.406;2023-03-04T07:54:37;102515.38;;;4.84;100.00
54042;BME280;41156;51.508;5.406;2023-03-04T07:57:38;102519.75;;;4.85;100.00
54042;BME280;41156;51.508;5.406;2023-03-04T08:00:38;102510.59;;;4.88;100.00
54042;BME280;41156;51.508;5.406;2023-03-04T08:03:40;102511.31;;;4.90;100.00
54042;BME280;41156;51.508;5.406;2023-03-04T08:06:40;102518.47;;;4.89;100.00
54042;BME280;41156;51.508;5.406;2023-03-04T08:09:41;102519.34;;;4.90;100.00
54042;BME280;41156;51.508;5.406;2023-03-04T08:12:41;102513.88;;;4.91;100.00
54042;BME280;41156;51.508;5.406;2023-03-04T08:15:42;102517.25;;;4.93;100.00
54042;BME280;41156;51.508;5.406;2023-03-04T08:18:46;102518.53;;;4.99;100.00
54042;BME280;41156;51.508;5.406;2023-03-04T08:21:49;102517.41;;;5.02;100.00
54042;BME280;41156;51.508;5.406;2023-03-04T08:24:50;102523.06;;;5.08;100.00
54042;BME280;41156;51.508;5.406;2023-03-04T08:27:50;102521.53;;;5.15;100.00
54042;BME280;41156;51.508;5.406;2023-03-04T08:30:53;102521.25;;;5.18;100.00
54042;BME280;41156;51.508;5.406;2023-03-04T08:33:53;102516.47;;;5.22;100.00
54042;BME280;41156;51.508;5.406;2023-03-04T08:36:54;102525.50;;;5.31;100.00
54042;BME280;41156;51.508;5.406;2023-03-04T08:39:54;102522.25;;;5.37;100.00
54042;BME280;41156;51.508;5.406;2023-03-04T08:42:54;102526.22;;;5.43;100.00
54042;BME280;41156;51.508;5.406;2023-03-04T08:45:55;102531.03;;;5.59;100.00
54042;BME280;41156;51.508;5.406;2023-03-04T08:48:55;102527.94;;;5.73;100.00
54042;BME280;41156;51.508;5.406;2023-03-04T08:51:56;102524.38;;;5.82;100.00
54042;BME280;41156;51.508;5.406;2023-03-04T08:54:56;102524.38;;;5.92;100.00
54042;BME280;41156;51.508;5.406;2023-03-04T08:57:57;102517.47;;;6.09;100.00
54042;BME280;41156;51.508;5.406;2023-03-04T09:00:59;102518.00;;;6.22;100.00
54042;BME280;41156;51.508;5.406;2023-03-04T09:03:59;102520.66;;;6.42;100.00
54042;BME280;41156;51.508;5.406;2023-03-04T09:07:01;102515.50;;;6.58;100.00
54042;BME280;41156;51.508;5.406;2023-03-04T09:10:01;102520.38;;;6.73;100.00
54042;BME280;41156;51.508;5.406;2023-03-04T09:13:01;102520.28;;;6.92;100.00
54042;BME280;41156;51.508;5.406;2023-03-04T09:16:02;102512.63;;;6.97;100.00
54042;BME280;41156;51.508;5.406;2023-03-04T09:19:02;102505.25;;;6.99;100.00
54042;BME280;41156;51.508;5.406;2023-03-04T09:22:03;102505.97;;;7.01;100.00
54042;BME280;41156;51.508;5.406;2023-03-04T09:25:03;102506.78;;;7.02;100.00
54042;BME280;41156;51.508;5.406;2023-03-04T09:28:05;102507.44;;;7.14;100.00
54042;BME280;41156;51.508;5.406;2023-03-04T09:31:14;102510.59;;;7.27;99.80
54042;BME280;41156;51.508;5.406;2023-03-04T09:34:15;102507.59;;;7.30;100.00
54042;BME280;41156;51.508;5.406;2023-03-04T09:37:15;102496.69;;;7.32;99.81
54042;BME280;41156;51.508;5.406;2023-03-04T09:40:22;102498.06;;;7.36;99.88
54042;BME280;41156;51.508;5.406;2023-03-04T09:43:26;102498.38;;;7.51;98.83
54042;BME280;41156;51.508;5.406;2023-03-04T09:46:33;102496.00;;;7.66;98.85
54042;BME280;41156;51.508;5.406;2023-03-04T09:49:39;102490.53;;;7.75;99.35
54042;BME280;41156;51.508;5.406;2023-03-04T09:52:43;102485.75;;;7.87;99.09
54042;BME280;41156;51.508;5.406;2023-03-04T09:55:50;102491.59;;;7.83;97.00
54042;BME280;41156;51.508;5.406;2023-03-04T10:02:17;102493.06;;;7.59;97.75
54042;BME280;41156;51.508;5.406;2023-03-04T10:05:22;102502.47;;;7.55;98.38
54042;BME280;41156;51.508;5.406;2023-03-04T10:11:42;102498.94;;;7.54;97.58
54042;BME280;41156;51.508;5.406;2023-03-04T10:14:47;102498.72;;;7.48;97.40
54042;BME280;41156;51.508;5.406;2023-03-04T10:17:59;102492.63;;;7.46;97.98
54042;BME280;41156;51.508;5.406;2023-03-04T10:21:22;102490.66;;;7.48;96.97
54042;BME280;41156;51.508;5.406;2023-03-04T10:24:28;102489.78;;;7.65;97.82
54042;BME280;41156;51.508;5.406;2023-03-04T10:27:30;102488.66;;;7.94;97.36
54042;BME280;41156;51.508;5.406;2023-03-04T10:33:58;102477.31;;;8.69;96.24
54042;BME280;41156;51.508;5.406;2023-03-04T10:37:00;102470.47;;;8.83;94.07
54042;BME280;41156;51.508;5.406;2023-03-04T10:40:01;102472.47;;;8.81;94.20
54042;BME280;41156;51.508;5.406;2023-03-04T10:43:03;102472.63;;;8.71;94.37
54042;BME280;41156;51.508;5.406;2023-03-04T10:46:10;102467.69;;;8.58;93.38
54042;BME280;41156;51.508;5.406;2023-03-04T10:49:16;102463.03;;;8.42;93.65
54042;BME280;41156;51.508;5.406;2023-03-04T10:52:29;102462.09;;;8.25;94.09
54042;BME280;41156;51.508;5.406;2023-03-04T10:55:41;102468.13;;;7.93;94.02
54042;BME280;41156;51.508;5.406;2023-03-04T10:58:42;102468.63;;;7.70;95.31
54042;BME280;41156;51.508;5.406;2023-03-04T11:01:42;102473.56;;;7.57;95.54
54042;BME280;41156;51.508;5.406;2023-03-04T11:04:48;102475.78;;;7.44;95.68
54042;BME280;41156;51.508;5.406;2023-03-04T11:07:54;102474.72;;;7.36;96.26
54042;BME280;41156;51.508;5.406;2023-03-04T11:10:55;102474.50;;;7.30;96.65
54042;BME280;41156;51.508;5.406;2023-03-04T11:13:58;102459.19;;;7.30;96.62
54042;BME280;41156;51.508;5.406;2023-03-04T11:17:02;102461.22;;;7.28;96.63
54042;BME280;41156;51.508;5.406;2023-03-04T11:20:22;102455.44;;;7.23;96.92
54042;BME280;41156;51.508;5.406;2023-03-04T11:26:42;102454.69;;;7.13;98.79
54042;BME280;41156;51.508;5.406;2023-03-04T11:29:51;102462.50;;;7.06;100.00
54042;BME280;41156;51.508;5.406;2023-03-04T11:33:03;102449.50;;;7.01;99.88
54042;BME280;41156;51.508;5.406;2023-03-04T11:36:20;102445.13;;;7.00;100.00
54042;BME280;41156;51.508;5.406;2023-03-04T11:40:12;102446.97;;;7.00;100.00
54042;BME280;41156;51.508;5.406;2023-03-04T11:43:13;102441.16;;;7.04;100.00
54042;BME280;41156;51.508;5.406;2023-03-04T11:50:13;102432.31;;;7.30;100.00
54042;BME280;41156;51.508;5.406;2023-03-04T11:53:32;102431.84;;;7.35;100.00
54042;BME280;41156;51.508;5.406;2023-03-04T11:56:59;102423.94;;;7.33;100.00
54042;BME280;41156;51.508;5.406;2023-03-04T12:06:49;102408.50;;;7.35;100.00
54042;BME280;41156;51.508;5.406;2023-03-04T12:10:24;102404.00;;;7.44;100.00
54042;BME280;41156;51.508;5.406;2023-03-04T12:20:37;102382.03;;;8.01;100.00
54042;BME280;41156;51.508;5.406;2023-03-04T12:24:16;102373.84;;;8.19;100.00
54042;BME280;41156;51.508;5.406;2023-03-04T12:27:26;102371.03;;;8.29;100.00
54042;BME280;41156;51.508;5.406;2023-03-04T12:37:35;102355.91;;;8.79;99.30
54042;BME280;41156;51.508;5.406;2023-03-04T12:40:48;102355.91;;;8.79;98.75
54042;BME280;41156;51.508;5.406;2023-03-04T12:44:11;102348.31;;;8.74;98.50
54042;BME280;41156;51.508;5.406;2023-03-04T12:47:22;102346.13;;;8.69;98.06
54042;BME280;41156;51.508;5.406;2023-03-04T12:53:57;102341.88;;;8.59;97.27
54042;BME280;41156;51.508;5.406;2023-03-04T12:57:23;102339.16;;;8.50;98.83
54042;BME280;41156;51.508;5.406;2023-03-04T13:00:43;102336.78;;;8.47;98.86
54042;BME280;41156;51.508;5.406;2023-03-04T13:03:52;102327.97;;;8.37;98.46
54042;BME280;41156;51.508;5.406;2023-03-04T13:10:13;102322.50;;;8.12;99.95
54042;BME280;41156;51.508;5.406;2023-03-04T13:20:41;102320.28;;;8.00;100.00
54042;BME280;41156;51.508;5.406;2023-03-04T13:23:41;102320.75;;;7.95;100.00
54042;BME280;41156;51.508;5.406;2023-03-04T13:26:42;102314.72;;;7.93;100.00
54042;BME280;41156;51.508;5.406;2023-03-04T13:29:42;102318.19;;;7.85;100.00
54042;BME280;41156;51.508;5.406;2023-03-04T13:32:43;102317.94;;;7.70;100.00
54042;BME280;41156;51.508;5.406;2023-03-04T13:39:01;102312.84;;;7.33;100.00
54042;BME280;41156;51.508;5.406;2023-03-04T13:42:04;102310.63;;;7.28;100.00
54042;BME280;41156;51.508;5.406;2023-03-04T13:45:36;102312.44;;;7.28;100.00
54042;BME280;41156;51.508;5.406;2023-03-04T13:48:38;102313.47;;;7.27;100.00
54042;BME280;41156;51.508;5.406;2023-03-04T13:51:40;102300.19;;;7.25;100.00
54042;BME280;41156;51.508;5.406;2023-03-04T13:54:43;102302.50;;;7.20;100.00
54042;BME280;41156;51.508;5.406;2023-03-04T13:57:50;102299.81;;;7.20;100.00
54042;BME280;41156;51.508;5.406;2023-03-04T14:00:53;102296.91;;;7.13;100.00
54042;BME280;41156;51.508;5.406;2023-03-04T14:03:54;102293.84;;;7.08;100.00
54042;BME280;41156;51.508;5.406;2023-03-04T14:06:56;102294.16;;;7.05;100.00
54042;BME280;41156;51.508;5.406;2023-03-04T14:13:13;102290.13;;;7.09;100.00
54042;BME280;41156;51.508;5.406;2023-03-04T14:16:21;102283.31;;;7.15;100.00
54042;BME280;41156;51.508;5.406;2023-03-04T14:19:31;102290.78;;;7.29;100.00
54042;BME280;41156;51.508;5.406;2023-03-04T14:22:38;102281.47;;;7.41;100.00
54042;BME280;41156;51.508;5.406;2023-03-04T14:25:38;102287.25;;;7.55;100.00
54042;BME280;41156;51.508;5.406;2023-03-04T14:28:47;102278.22;;;7.64;100.00
54042;BME280;41156;51.508;5.406;2023-03-04T14:31:47;102278.75;;;7.68;100.00
54042;BME280;41156;51.508;5.406;2023-03-04T14:34:49;102270.34;;;7.71;100.00
54042;BME280;41156;51.508;5.406;2023-03-04T14:38:20;102266.81;;;7.70;100.00
54042;BME280;41156;51.508;5.406;2023-03-04T14:41:29;102267.97;;;7.59;100.00
54042;BME280;41156;51.508;5.406;2023-03-04T14:44:41;102270.75;;;7.50;100.00
54042;BME280;41156;51.508;5.406;2023-03-04T14:47:44;102263.53;;;7.50;100.00
54042;BME280;41156;51.508;5.406;2023-03-04T14:50:47;102257.16;;;7.51;100.00
54042;BME280;41156;51.508;5.406;2023-03-04T14:53:55;102254.81;;;7.56;100.00
54042;BME280;41156;51.508;5.406;2023-03-04T14:56:57;102254.16;;;7.63;100.00
54042;BME280;41156;51.508;5.406;2023-03-04T15:00:15;102257.44;;;7.74;100.00
54042;BME280;41156;51.508;5.406;2023-03-04T15:03:27;102249.56;;;7.81;100.00
54042;BME280;41156;51.508;5.406;2023-03-04T15:06:30;102239.47;;;7.83;100.00
54042;BME280;41156;51.508;5.406;2023-03-04T15:09:31;102240.81;;;7.87;100.00
54042;BME280;41156;51.508;5.406;2023-03-04T15:12:34;102245.53;;;7.85;100.00
54042;BME280;41156;51.508;5.406;2023-03-04T15:15:42;102235.59;;;7.86;100.00
54042;BME280;41156;51.508;5.406;2023-03-04T15:18:57;102225.38;;;7.89;100.00
54042;BME280;41156;51.508;5.406;2023-03-04T15:22:05;102237.97;;;7.89;100.00
54042;BME280;41156;51.508;5.406;2023-03-04T15:25:11;102227.34;;;7.87;100.00
54042;BME280;41156;51.508;5.406;2023-03-04T15:28:16;102232.06;;;7.85;100.00
54042;BME280;41156;51.508;5.406;2023-03-04T15:31:18;102228.88;;;7.82;100.00
54042;BME280;41156;51.508;5.406;2023-03-04T15:34:19;102229.53;;;7.84;100.00
54042;BME280;41156;51.508;5.406;2023-03-04T15:37:27;102233.59;;;7.88;100.00
54042;BME280;41156;51.508;5.406;2023-03-04T15:40:30;102224.81;;;7.86;100.00
54042;BME280;41156;51.508;5.406;2023-03-04T15:43:31;102223.59;;;7.72;100.00
54042;BME280;41156;51.508;5.406;2023-03-04T15:46:31;102228.78;;;7.65;100.00
54042;BME280;41156;51.508;5.406;2023-03-04T15:49:32;102234.97;;;7.57;100.00
54042;BME280;41156;51.508;5.406;2023-03-04T15:52:32;102232.78;;;7.53;100.00
54042;BME280;41156;51.508;5.406;2023-03-04T15:55:33;102231.41;;;7.49;100.00
54042;BME280;41156;51.508;5.406;2023-03-04T15:58:34;102233.72;;;7.44;98.82
54042;BME280;41156;51.508;5.406;2023-03-04T16:01:34;102229.69;;;7.39;100.00
54042;BME280;41156;51.508;5.406;2023-03-04T16:04:34;102225.63;;;7.35;100.00
54042;BME280;41156;51.508;5.406;2023-03-04T16:07:35;102223.72;;;7.28;99.15
54042;BME280;41156;51.508;5.406;2023-03-04T16:10:37;102227.75;;;7.23;100.00
54042;BME280;41156;51.508;5.406;2023-03-04T16:13:37;102225.22;;;7.22;100.00
54042;BME280;41156;51.508;5.406;2023-03-04T16:16:37;102221.53;;;7.23;100.00
54042;BME280;41156;51.508;5.406;2023-03-04T16:19:38;102224.53;;;7.20;98.01
54042;BME280;41156;51.508;5.406;2023-03-04T16:22:39;102229.06;;;7.19;99.37
54042;BME280;41156;51.508;5.406;2023-03-04T16:25:45;102226.53;;;7.18;99.82
54042;BME280;41156;51.508;5.406;2023-03-04T16:28:46;102225.31;;;7.12;98.55
54042;BME280;41156;51.508;5.406;2023-03-04T16:31:46;102220.91;;;7.03;99.26
54042;BME280;41156;51.508;5.406;2023-03-04T16:34:46;102227.56;;;6.99;100.00
54042;BME280;41156;51.508;5.406;2023-03-04T16:37:50;102228.91;;;6.95;100.00
54042;BME280;41156;51.508;5.406;2023-03-04T16:40:50;102224.97;;;6.89;100.00
54042;BME280;41156;51.508;5.406;2023-03-04T16:43:51;102209.16;;;6.86;100.00
54042;BME280;41156;51.508;5.406;2023-03-04T16:46:51;102213.88;;;6.84;100.00
54042;BME280;41156;51.508;5.406;2023-03-04T16:49:51;102220.56;;;6.80;100.00
54042;BME280;41156;51.508;5.406;2023-03-04T16:52:53;102214.50;;;6.78;100.00
54042;BME280;41156;51.508;5.406;2023-03-04T16:55:54;102218.03;;;6.78;100.00
54042;BME280;41156;51.508;5.406;2023-03-04T16:58:54;102222.88;;;6.75;100.00
54042;BME280;41156;51.508;5.406;2023-03-04T17:01:55;102224.00;;;6.72;100.00
54042;BME280;41156;51.508;5.406;2023-03-04T17:04:55;102223.50;;;6.69;100.00
54042;BME280;41156;51.508;5.406;2023-03-04T17:07:57;102220.44;;;6.63;100.00
54042;BME280;41156;51.508;5.406;2023-03-04T17:10:57;102232.47;;;6.59;100.00